Time;durP1;ratioP1;P1;durP2;ratioP2;P2;SDS_P1;SDS_P2;PMS_P1;PMS_P2;Temp;Humidity;BMP_temperature;BMP_pressure;BME280_temperature;BME280_humidity;BME280_pressure;Samples;Min_cycle;Max_cycle;Signal;HPM_P1;HPM_P2
2022/05/28 00:01:22;;;;;;;5.20;1.30;;;;;;;6.18;88.62;98832.91;104952;1271;73148;-68
2022/05/28 00:04:09;;;;;;;5.90;1.50;;;;;;;6.18;88.73;98835.35;104903;1271;59688;-69
2022/05/28 00:06:56;;;;;;;6.10;1.30;;;;;;;6.19;88.13;98829.35;104983;1271;61075;-69
2022/05/28 00:09:43;;;;;;;6.30;1.40;;;;;;;6.19;89.03;98828.85;105090;1271;73811;-69
2022/05/28 00:12:35;;;;;;;7.70;1.60;;;;;;;6.19;89.53;98827.77;104841;1271;69464;-70
2022/05/28 00:15:23;;;;;;;6.30;1.50;;;;;;;6.20;89.10;98825.89;104853;1271;73555;-67
2022/05/28 00:18:10;;;;;;;6.20;1.60;;;;;;;6.20;89.41;98826.05;105186;1271;59942;-68
2022/05/28 00:20:58;;;;;;;5.90;1.40;;;;;;;6.18;89.85;98820.24;105002;1271;59535;-68
2022/05/28 00:23:45;;;;;;;6.80;1.20;;;;;;;6.17;89.56;98817.13;104871;1271;74582;-69
2022/05/28 00:26:32;;;;;;;7.80;1.60;;;;;;;6.17;90.22;98809.63;104864;1272;69559;-71
2022/05/28 00:29:19;;;;;;;8.90;1.40;;;;;;;6.15;90.53;98809.01;104959;1271;73578;-71
2022/05/28 00:32:06;;;;;;;8.40;1.50;;;;;;;6.16;90.59;98807.70;105013;1271;60879;-68
2022/05/28 00:34:53;;;;;;;7.50;1.30;;;;;;;6.17;90.99;98803.29;104846;1271;62181;-69
2022/05/28 00:37:39;;;;;;;8.70;1.60;;;;;;;6.16;91.09;98802.95;105004;1271;73738;-70
2022/05/28 00:40:27;;;;;;;8.40;1.60;;;;;;;6.15;91.59;98801.95;104949;1274;68969;-67
2022/05/28 00:43:15;;;;;;;9.50;1.50;;;;;;;6.14;91.86;98802.02;104905;1274;73358;-71
2022/05/28 00:46:24;;;;;;;9.00;1.60;;;;;;;6.13;91.54;98799.15;104932;1274;60595;-66
2022/05/28 00:49:22;;;;;;;8.00;1.40;;;;;;;6.11;91.77;98794.76;104800;1273;61630;-69
2022/05/28 00:52:09;;;;;;;7.00;1.40;;;;;;;6.10;91.93;98798.29;105001;1273;73766;-70
2022/05/28 00:54:56;;;;;;;7.20;1.20;;;;;;;6.11;93.19;98796.15;104829;1273;69029;-67
2022/05/28 00:57:44;;;;;;;6.80;1.30;;;;;;;6.14;93.03;98798.33;105040;1271;73437;-67
2022/05/28 01:00:34;;;;;;;7.10;1.40;;;;;;;6.17;92.93;98798.35;104753;1274;59672;-68
2022/05/28 01:03:41;;;;;;;9.60;1.60;;;;;;;6.20;93.20;98795.45;104883;1274;60526;-68
2022/05/28 01:07:08;;;;;;;7.60;1.30;;;;;;;6.22;93.43;98793.84;104987;1271;74716;-68
2022/05/28 01:10:30;;;;;;;7.00;1.30;;;;;;;6.26;93.11;98797.92;105015;1271;67449;-67
2022/05/28 01:13:44;;;;;;;6.20;1.20;;;;;;;6.32;93.90;98787.98;104980;1271;72686;-66
2022/05/28 01:16:46;;;;;;;9.60;2.00;;;;;;;6.37;94.08;98787.73;104826;1274;59657;-68
2022/05/28 01:19:54;;;;;;;7.30;1.40;;;;;;;6.41;93.52;98785.79;105008;1274;59742;-68
2022/05/28 01:23:18;;;;;;;9.00;1.60;;;;;;;6.39;93.83;98778.56;105101;1271;74736;-67
2022/05/28 01:26:44;;;;;;;12.70;1.90;;;;;;;6.42;93.79;98785.92;105267;1271;68485;-66
2022/05/28 01:29:46;;;;;;;9.40;1.90;;;;;;;6.38;93.77;98787.98;104848;1271;72277;-67
2022/05/28 01:32:34;;;;;;;8.30;1.80;;;;;;;6.35;93.53;98790.17;104865;1271;61631;-68
2022/05/28 01:35:23;;;;;;;6.70;1.40;;;;;;;6.33;94.16;98788.98;105023;1271;59835;-67
2022/05/28 01:38:14;;;;;;;7.60;1.60;;;;;;;6.30;94.58;98779.81;104936;1274;75277;-68
2022/05/28 01:41:06;;;;;;;8.80;1.50;;;;;;;6.28;94.63;98776.63;105003;1272;67171;-69
2022/05/28 01:43:55;;;;;;;8.90;1.40;;;;;;;6.26;94.28;98779.31;104679;1273;1003648;-67
2022/05/28 01:46:44;;;;;;;8.30;1.60;;;;;;;6.23;94.90;98777.39;105160;1271;60082;-67
2022/05/28 01:49:34;;;;;;;10.30;1.80;;;;;;;6.23;94.88;98780.04;105103;1274;60471;-66
2022/05/28 01:52:22;;;;;;;11.70;1.90;;;;;;;6.26;95.71;98775.92;105106;1271;73514;-69
2022/05/28 01:55:12;;;;;;;11.20;1.80;;;;;;;6.32;95.73;98777.75;104944;1271;68312;-67
2022/05/28 01:57:59;;;;;;;6.50;1.30;;;;;;;6.38;95.17;98768.85;104972;1272;73535;-68
2022/05/28 02:00:45;;;;;;;8.60;1.70;;;;;;;6.41;94.94;98767.84;105094;1271;59728;-69
2022/05/28 02:03:35;;;;;;;8.30;1.60;;;;;;;6.44;93.78;98765.45;104862;1274;62094;-69
2022/05/28 02:06:22;;;;;;;7.80;1.40;;;;;;;6.47;93.20;98764.74;104925;1272;74024;-67
2022/05/28 02:09:16;;;;;;;8.60;1.30;;;;;;;6.48;92.59;98762.37;104950;1271;68550;-67
2022/05/28 02:12:28;;;;;;;6.20;1.30;;;;;;;6.49;92.04;98758.20;105025;1271;74983;-67
2022/05/28 02:15:26;;;;;;;7.30;1.30;;;;;;;6.49;91.69;98748.54;105129;1271;59674;-66
2022/05/28 02:18:42;;;;;;;5.80;1.10;;;;;;;6.47;91.77;98729.14;105149;1271;60883;-68
2022/05/28 02:21:42;;;;;;;6.80;1.50;;;;;;;6.43;91.69;98731.02;105137;1271;74811;-68
2022/05/28 02:24:43;;;;;;;5.50;1.20;;;;;;;6.38;91.65;98732.31;105031;1271;69580;-71
2022/05/28 02:27:32;;;;;;;7.10;1.20;;;;;;;6.32;92.57;98735.13;104970;1271;74285;-68
2022/05/28 02:30:19;;;;;;;5.20;1.20;;;;;;;6.26;93.67;98742.30;105054;1271;60035;-70
2022/05/28 02:33:06;;;;;;;7.10;1.50;;;;;;;6.22;93.94;98742.08;104916;1274;59753;-68
2022/05/28 02:35:53;;;;;;;5.60;1.20;;;;;;;6.20;94.58;98741.73;104943;1274;74793;-68
2022/05/28 02:38:39;;;;;;;10.40;2.30;;;;;;;6.18;95.86;98745.39;105177;1274;68236;-69
2022/05/28 02:41:26;;;;;;;8.10;1.40;;;;;;;6.20;95.81;98750.73;104986;1274;72423;-68
2022/05/28 02:44:13;;;;;;;8.50;1.80;;;;;;;6.21;96.29;98754.30;104816;1274;59703;-67
2022/05/28 02:46:59;;;;;;;6.00;1.40;;;;;;;6.26;96.18;98755.34;104906;1271;60115;-68
2022/05/28 02:49:46;;;;;;;8.30;1.40;;;;;;;6.28;96.49;98757.09;104977;1271;74756;-68
2022/05/28 02:52:32;;;;;;;6.10;1.10;;;;;;;6.27;95.68;98756.46;104898;1274;68347;-68
2022/05/28 02:55:19;;;;;;;5.40;1.30;;;;;;;6.26;95.20;98753.70;104860;1274;73442;-64
2022/05/28 02:58:06;;;;;;;5.90;1.40;;;;;;;6.27;95.45;98757.85;104889;1272;59721;-65
2022/05/28 03:00:53;;;;;;;6.00;1.10;;;;;;;6.27;96.06;98763.16;104907;1274;60154;-69
2022/05/28 03:03:39;;;;;;;6.30;1.20;;;;;;;6.27;96.23;98770.92;104849;1274;72602;-68
2022/05/28 03:06:26;;;;;;;5.30;1.20;;;;;;;6.25;95.87;98769.09;105000;1274;68787;-67
2022/05/28 03:09:16;;;;;;;7.70;1.20;;;;;;;6.26;96.98;98771.53;104744;1271;74452;-67
2022/05/28 03:12:04;;;;;;;7.30;1.40;;;;;;;6.27;97.52;98771.41;104778;1274;61237;-67
2022/05/28 03:14:50;;;;;;;6.70;1.50;;;;;;;6.31;98.17;98757.41;105045;1271;59598;-68
2022/05/28 03:17:38;;;;;;;7.70;1.50;;;;;;;6.36;98.03;98748.86;104921;1271;73699;-65
2022/05/28 03:20:29;;;;;;;6.20;1.30;;;;;;;6.45;97.87;98750.06;104904;1271;67917;-65
2022/05/28 03:23:15;;;;;;;6.20;1.20;;;;;;;6.60;97.79;98744.95;105001;1271;74449;-66
2022/05/28 03:26:22;;;;;;;6.50;1.50;;;;;;;6.65;97.46;98727.62;104945;1271;59659;-66
2022/05/28 03:29:09;;;;;;;6.40;1.20;;;;;;;6.70;97.87;98724.80;105052;1274;61224;-68
2022/05/28 03:31:56;;;;;;;5.30;1.20;;;;;;;6.66;96.53;98723.69;104995;1271;73581;-66
2022/05/28 03:34:43;;;;;;;5.30;1.30;;;;;;;6.59;96.25;98718.41;105091;1272;68025;-65
2022/05/28 03:37:30;;;;;;;5.30;1.30;;;;;;;6.61;96.22;98716.92;105113;1271;72290;-67
2022/05/28 03:40:17;;;;;;;6.00;1.10;;;;;;;6.60;96.32;98720.50;105100;1272;61466;-67
2022/05/28 03:43:06;;;;;;;4.70;1.20;;;;;;;6.61;96.00;98715.84;105030;1271;61662;-66
2022/05/28 03:45:53;;;;;;;5.50;1.40;;;;;;;6.63;96.06;98716.71;104932;1271;74715;-67
2022/05/28 03:48:41;;;;;;;6.00;1.20;;;;;;;6.71;96.48;98718.17;105000;1271;69506;-68
2022/05/28 03:51:28;;;;;;;5.70;1.20;;;;;;;6.82;96.54;98719.17;105141;1271;74505;-66
2022/05/28 03:54:14;;;;;;;5.00;1.10;;;;;;;6.96;96.04;98714.14;104977;1271;59698;-66
2022/05/28 03:57:07;;;;;;;5.10;1.20;;;;;;;6.99;95.03;98714.77;104808;1274;61066;-68
2022/05/28 03:59:54;;;;;;;6.70;1.10;;;;;;;6.98;94.58;98718.75;105034;1274;74504;-67
2022/05/28 04:02:41;;;;;;;5.20;1.00;;;;;;;7.09;94.75;98722.39;104827;1271;68802;-65
2022/05/28 04:05:28;;;;;;;8.60;1.30;;;;;;;7.16;94.35;98720.79;105158;1272;73497;-67
2022/05/28 04:08:14;;;;;;;5.30;1.30;;;;;;;7.27;93.80;98714.73;105021;1271;60558;-68
2022/05/28 04:11:01;;;;;;;5.50;1.00;;;;;;;7.33;93.34;98711.95;105034;1271;61002;-66
2022/05/28 04:13:48;;;;;;;7.30;1.40;;;;;;;7.29;92.91;98709.46;104969;1274;73581;-67
2022/05/28 04:16:34;;;;;;;5.70;1.40;;;;;;;7.35;92.70;98714.58;105087;1271;67678;-68
2022/05/28 04:19:21;;;;;;;6.00;1.10;;;;;;;7.46;92.76;98715.39;104854;1271;73510;-67
2022/05/28 04:22:08;;;;;;;5.10;1.30;;;;;;;7.54;91.92;98718.27;104946;1272;59710;-66
2022/05/28 04:24:55;;;;;;;4.80;1.20;;;;;;;7.74;91.68;98714.08;104943;1272;60370;-68
2022/05/28 04:27:43;;;;;;;6.00;1.30;;;;;;;7.83;90.72;98714.00;104742;1272;74889;-68
2022/05/28 04:30:30;;;;;;;6.20;1.20;;;;;;;7.92;89.71;98713.86;104932;1271;68622;-70
2022/05/28 04:33:16;;;;;;;5.30;1.20;;;;;;;8.08;88.87;98706.88;104987;1271;74518;-69
2022/05/28 04:36:03;;;;;;;6.90;1.30;;;;;;;8.30;87.49;98710.16;104933;1272;60562;-69
2022/05/28 04:38:49;;;;;;;5.00;1.20;;;;;;;8.49;86.37;98703.34;104825;1274;59576;-67
2022/05/28 04:41:36;;;;;;;5.40;1.30;;;;;;;8.58;86.22;98702.95;105109;1271;74720;-67
2022/05/28 04:44:22;;;;;;;7.60;1.30;;;;;;;8.65;85.00;98700.54;105038;1271;67410;-67
2022/05/28 04:47:09;;;;;;;5.40;1.10;;;;;;;8.69;84.78;98703.48;106091;1271;72314;-66
2022/05/28 04:49:55;;;;;;;5.70;1.50;;;;;;;8.83;83.73;98705.55;105064;1271;61264;-64
2022/05/28 04:52:42;;;;;;;5.70;1.00;;;;;;;8.98;82.33;98703.17;104993;1271;60508;-66
2022/05/28 04:55:32;;;;;;;5.80;1.20;;;;;;;9.08;82.26;98705.58;104790;1274;74144;-69
2022/05/28 04:58:19;;;;;;;5.00;1.10;;;;;;;9.10;81.58;98706.36;105148;1271;69355;-68
2022/05/28 05:01:05;;;;;;;6.30;1.10;;;;;;;8.90;80.92;98713.79;104866;1271;74481;-71
2022/05/28 05:03:52;;;;;;;4.70;1.10;;;;;;;8.76;81.46;98714.34;104873;1271;59636;-70
2022/05/28 05:06:39;;;;;;;5.10;1.20;;;;;;;8.66;80.92;98706.22;104714;1271;60424;-68
2022/05/28 05:09:32;;;;;;;5.40;1.20;;;;;;;8.73;81.22;98707.78;104878;1274;72196;-70
2022/05/28 05:12:19;;;;;;;7.80;1.70;;;;;;;8.81;80.83;98707.88;104810;1271;67609;-67
2022/05/28 05:15:07;;;;;;;7.40;1.30;;;;;;;9.17;79.64;98703.85;104879;1271;74394;-66
2022/05/28 05:17:54;;;;;;;5.30;1.10;;;;;;;9.45;78.37;98702.52;104958;1271;59942;-68
2022/05/28 05:20:41;;;;;;;4.50;0.90;;;;;;;9.28;78.32;98707.13;104704;1271;60012;-66
2022/05/28 05:23:28;;;;;;;5.70;1.20;;;;;;;9.18;78.16;98713.70;104886;1271;73576;-71
2022/05/28 05:26:19;;;;;;;4.00;1.00;;;;;;;9.09;77.78;98717.01;104746;1271;67093;-66
2022/05/28 05:29:05;;;;;;;4.30;0.90;;;;;;;8.95;77.63;98708.42;104939;1271;74740;-69
2022/05/28 05:31:52;;;;;;;4.70;1.10;;;;;;;8.96;78.32;98713.80;104996;1271;59628;-67
2022/05/28 05:34:39;;;;;;;5.60;1.20;;;;;;;9.14;77.43;98717.44;104844;1271;61083;-67
2022/05/28 05:37:26;;;;;;;4.70;1.20;;;;;;;9.04;76.92;98710.42;105132;1271;73592;-67
2022/05/28 05:40:14;;;;;;;4.90;1.10;;;;;;;8.99;77.34;98715.13;104922;1271;66260;-69
2022/05/28 05:43:00;;;;;;;4.60;1.10;;;;;;;9.07;76.96;98715.75;104907;1271;74583;-69
2022/05/28 05:45:56;;;;;;;4.50;1.10;;;;;;;9.34;75.56;98715.02;104888;1271;59713;-69
2022/05/28 05:48:43;;;;;;;6.10;1.20;;;;;;;10.06;73.71;98714.23;104992;1274;60207;-71
2022/05/28 05:51:30;;;;;;;5.40;1.30;;;;;;;11.58;68.46;98709.38;105036;1271;74527;-69
2022/05/28 05:54:17;;;;;;;4.60;1.00;;;;;;;12.17;64.93;98713.27;104865;1271;68379;-68
2022/05/28 05:57:04;;;;;;;4.90;1.10;;;;;;;13.37;61.29;98706.90;105081;1271;73115;-66
2022/05/28 05:59:52;;;;;;;5.30;1.30;;;;;;;15.16;56.16;98703.00;105298;1271;59813;-66
2022/05/28 06:02:39;;;;;;;5.50;1.10;;;;;;;16.23;50.63;98703.61;104874;1271;60588;-68
2022/05/28 06:05:26;;;;;;;5.20;1.00;;;;;;;15.92;49.74;98701.31;104903;1271;73688;-68
2022/05/28 06:08:15;;;;;;;4.40;0.80;;;;;;;15.72;50.72;98704.59;105107;1271;69605;-67
2022/05/28 06:11:02;;;;;;;5.80;1.10;;;;;;;15.10;51.78;98700.46;104976;1271;74376;-69
2022/05/28 06:13:51;;;;;;;5.70;1.10;;;;;;;14.65;52.68;98711.29;104928;1271;59661;-68
2022/05/28 06:16:37;;;;;;;7.90;3.40;;;;;;;14.77;52.24;98712.06;104870;1271;60937;-67
2022/05/28 06:19:24;;;;;;;7.10;2.20;;;;;;;15.14;50.81;98709.41;104840;1271;73835;-71
2022/05/28 06:22:11;;;;;;;9.20;3.80;;;;;;;16.01;48.28;98709.60;104794;1271;69699;-68
2022/05/28 06:24:57;;;;;;;8.00;3.40;;;;;;;16.42;47.59;98701.41;104971;1271;73750;-68
2022/05/28 06:27:46;;;;;;;6.70;2.20;;;;;;;17.03;45.84;98698.38;104937;1271;59768;-68
2022/05/28 06:30:33;;;;;;;5.60;1.60;;;;;;;16.57;45.74;98700.64;104904;1271;60334;-69
2022/05/28 06:33:19;;;;;;;9.10;3.80;;;;;;;15.86;47.49;98706.51;104888;1271;74605;-70
2022/05/28 06:36:09;;;;;;;4.80;1.20;;;;;;;15.04;49.29;98705.84;104834;1272;68794;-70
2022/05/28 06:38:58;;;;;;;8.10;3.30;;;;;;;14.41;50.82;98703.44;104884;1271;72824;-70
2022/05/28 06:41:46;;;;;;;5.10;1.20;;;;;;;14.99;50.71;98702.48;104990;1274;60508;-68
2022/05/28 06:44:36;;;;;;;7.10;2.10;;;;;;;16.15;46.59;98696.90;105234;1271;59671;-69
2022/05/28 06:47:23;;;;;;;6.20;2.00;;;;;;;16.42;45.68;98701.30;104807;1271;71885;-68
2022/05/28 06:53:20;;;;;;;13.60;7.70;;;;;;;15.67;46.67;98699.11;105066;1271;74403;-67
2022/05/28 06:56:09;;;;;;;5.80;1.90;;;;;;;15.02;48.22;98703.88;105069;1271;59908;-67
2022/05/28 06:58:57;;;;;;;6.50;1.10;;;;;;;14.48;50.55;98709.13;104986;1271;62035;-67
2022/05/28 07:01:44;;;;;;;6.30;1.40;;;;;;;13.89;53.38;98714.39;104942;1271;74624;-68
2022/05/28 07:04:30;;;;;;;8.20;2.10;;;;;;;13.27;55.98;98719.14;104890;1271;67373;-68
2022/05/28 07:07:17;;;;;;;6.90;2.00;;;;;;;12.87;57.14;98726.45;105052;1271;74447;-68
2022/05/28 07:10:06;;;;;;;7.30;2.00;;;;;;;12.69;58.32;98727.29;104728;1271;60034;-68
2022/05/28 07:12:52;;;;;;;5.30;1.20;;;;;;;12.35;59.46;98720.20;104951;1271;60995;-69
2022/05/28 07:15:39;;;;;;;5.80;1.50;;;;;;;12.85;58.96;98719.69;104870;1271;74795;-70
2022/05/28 07:18:26;;;;;;;6.60;1.30;;;;;;;14.95;52.32;98709.20;104897;1271;68842;-71
2022/05/28 07:21:13;;;;;;;6.10;1.20;;;;;;;15.35;50.58;98703.56;104957;1271;73208;-70
2022/05/28 07:23:59;;;;;;;6.30;1.20;;;;;;;15.39;51.06;98706.20;104959;1271;59662;-69
2022/05/28 07:26:53;;;;;;;6.80;1.40;;;;;;;15.59;49.59;98699.45;104918;1271;60939;-68
2022/05/28 07:29:40;;;;;;;6.00;1.30;;;;;;;14.92;50.15;98707.02;105307;1271;73006;-70
2022/05/28 07:32:30;;;;;;;6.50;1.20;;;;;;;14.86;49.43;98707.08;105003;1270;68892;-69
2022/05/28 07:35:17;;;;;;;5.40;1.10;;;;;;;16.10;48.09;98705.90;104858;1274;73398;-71
2022/05/28 07:38:03;;;;;;;4.80;1.00;;;;;;;17.62;43.66;98691.67;104748;1271;59679;-71
2022/05/28 07:40:51;;;;;;;4.30;1.00;;;;;;;19.33;40.38;98688.52;104962;1271;60531;-70
2022/05/28 07:43:39;;;;;;;5.20;0.90;;;;;;;20.64;37.31;98683.35;104803;1271;74706;-71
2022/05/28 07:46:31;;;;;;;4.70;1.00;;;;;;;21.77;34.88;98677.98;104805;1271;68494;-69
2022/05/28 07:49:20;;;;;;;6.50;1.20;;;;;;;22.89;32.71;98672.52;104765;1271;70996;-69
2022/05/28 07:52:09;;;;;;;4.90;1.00;;;;;;;22.42;32.97;98671.67;104742;1271;59704;-69
2022/05/28 07:54:55;;;;;;;5.10;0.90;;;;;;;22.73;32.66;98670.77;104914;1271;60349;-68
2022/05/28 07:57:42;;;;;;;4.40;0.80;;;;;;;23.13;31.72;98671.77;104902;1271;73655;-69
2022/05/28 08:00:28;;;;;;;4.70;0.90;;;;;;;23.60;31.27;98666.37;104919;1271;69524;-68
2022/05/28 08:03:17;;;;;;;11.90;7.20;;;;;;;23.87;30.53;98668.58;105021;1271;73775;-69
2022/05/28 08:06:03;;;;;;;6.50;1.40;;;;;;;24.43;30.12;98664.16;106264;1274;59612;-69
2022/05/28 08:08:53;;;;;;;5.80;1.20;;;;;;;24.97;29.39;98658.35;107312;1271;59346;-68
2022/05/28 08:11:45;;;;;;;5.90;1.50;;;;;;;24.16;29.05;98652.84;107205;1271;72072;-66
2022/05/28 08:14:31;;;;;;;5.90;1.20;;;;;;;23.24;31.36;98652.21;107006;1271;68577;-71
2022/05/28 08:17:18;;;;;;;7.60;3.10;;;;;;;21.99;32.72;98654.31;105853;1273;73328;-70
2022/05/28 08:20:08;;;;;;;12.10;6.70;;;;;;;22.25;32.92;98653.52;104853;1271;59672;-69
2022/05/28 08:23:09;;;;;;;7.40;2.60;;;;;;;21.63;32.87;98652.44;104793;1274;61674;-67
2022/05/28 08:25:56;;;;;;;6.90;2.10;;;;;;;21.25;33.00;98661.69;104925;1271;73673;-69
2022/05/28 08:28:42;;;;;;;5.70;1.40;;;;;;;20.49;34.13;98668.64;104922;1271;67960;-67
2022/05/28 08:31:30;;;;;;;5.00;1.10;;;;;;;19.94;35.69;98670.77;104934;1271;74722;-70
2022/05/28 08:34:17;;;;;;;7.00;1.30;;;;;;;19.79;36.06;98668.02;104916;1271;59679;-68
2022/05/28 08:37:04;;;;;;;5.90;1.40;;;;;;;20.20;35.53;98666.18;104887;1271;62163;-69
2022/05/28 08:39:50;;;;;;;7.20;1.50;;;;;;;20.65;34.79;98663.12;104977;1271;74742;-71
2022/05/28 08:42:39;;;;;;;5.90;1.30;;;;;;;21.31;33.84;98659.55;104946;1271;68641;-67
2022/05/28 08:45:25;;;;;;;6.70;1.20;;;;;;;21.35;33.48;98656.15;104939;1271;73462;-72
2022/05/28 08:48:17;;;;;;;5.40;1.10;;;;;;;21.00;33.39;98659.52;104926;1271;59727;-69
2022/05/28 08:51:16;;;;;;;5.60;1.30;;;;;;;20.08;34.96;98660.84;104726;1274;60601;-68
2022/05/28 08:54:28;;;;;;;5.80;1.30;;;;;;;19.68;35.87;98656.91;104945;1271;73655;-68
2022/05/28 08:57:19;;;;;;;5.50;1.30;;;;;;;18.78;38.29;98658.23;104886;1271;67460;-69
2022/05/28 09:00:19;;;;;;;6.20;1.30;;;;;;;18.11;39.25;98655.87;104968;1271;73509;-66
2022/05/28 09:03:19;;;;;;;5.80;1.30;;;;;;;18.41;39.11;98658.65;104751;1271;59700;-68
2022/05/28 09:06:18;;;;;;;5.60;1.20;;;;;;;19.22;37.57;98656.20;104809;1271;61618;-69
2022/05/28 09:09:10;;;;;;;6.80;1.30;;;;;;;20.07;35.75;98659.19;104775;1271;72959;-68
2022/05/28 09:12:05;;;;;;;5.80;1.10;;;;;;;19.83;36.00;98660.94;104886;1271;65818;-74
2022/05/28 09:14:51;;;;;;;6.70;1.20;;;;;;;19.49;36.49;98671.69;104875;1271;74475;-72
2022/05/28 09:17:50;;;;;;;4.90;1.10;;;;;;;18.80;37.90;98674.48;104943;1271;61901;-68
2022/05/28 09:20:43;;;;;;;4.90;1.00;;;;;;;18.26;39.84;98677.54;104826;1271;59703;-70
2022/05/28 09:23:43;;;;;;;6.60;1.20;;;;;;;18.06;40.79;98679.33;104809;1271;73491;-70
2022/05/28 09:27:30;;;;;;;5.50;1.20;;;;;;;17.85;40.11;98675.54;104764;1271;66778;-68
2022/05/28 09:30:36;;;;;;;5.70;1.00;;;;;;;17.31;41.38;98676.43;105054;1271;73408;-64
2022/05/28 09:33:46;;;;;;;6.40;1.10;;;;;;;18.04;40.51;98679.86;105163;1271;59658;-69
2022/05/28 09:36:49;;;;;;;5.80;1.10;;;;;;;17.97;39.88;98681.77;104897;1271;61481;-66
2022/05/28 09:39:56;;;;;;;5.20;1.30;;;;;;;17.24;42.72;98696.08;104901;1271;74128;-70
2022/05/28 09:43:06;;;;;;;5.90;1.20;;;;;;;16.53;44.11;98692.96;105203;1271;69275;-70
2022/05/28 09:45:56;;;;;;;5.60;1.30;;;;;;;16.24;45.77;98703.48;105027;1271;73482;-70
2022/05/28 09:48:42;;;;;;;6.70;1.10;;;;;;;16.20;46.93;98695.73;104962;1271;59662;-70
2022/05/28 09:51:32;;;;;;;6.20;1.30;;;;;;;16.06;47.18;98704.12;105011;1271;60355;-70
2022/05/28 09:54:30;;;;;;;6.50;1.50;;;;;;;15.73;48.40;98705.21;104998;1271;73798;-68
2022/05/28 09:57:26;;;;;;;10.70;3.60;;;;;;;15.11;49.63;98710.25;104948;1271;69667;-69
2022/05/28 10:00:15;;;;;;;8.30;2.70;;;;;;;14.53;51.28;98711.91;105297;1271;72095;-69
2022/05/28 10:06:14;;;;;;;7.00;2.30;;;;;;;14.70;52.03;98707.60;105162;1271;60674;-71
2022/05/28 10:09:46;;;;;;;7.10;2.30;;;;;;;15.22;50.10;98705.52;104839;1271;71923;-70
2022/05/28 10:12:33;;;;;;;6.30;2.20;;;;;;;15.65;49.10;98708.81;104423;1277;68754;-70
2022/05/28 10:15:31;;;;;;;5.90;1.80;;;;;;;16.00;47.49;98709.83;104387;1277;73441;-70
2022/05/28 10:18:28;;;;;;;6.40;1.40;;;;;;;15.97;47.01;98707.85;104390;1278;59690;-68
2022/05/28 10:21:26;;;;;;;6.10;1.50;;;;;;;15.85;47.25;98705.69;104589;1277;62067;-69
2022/05/28 10:24:18;;;;;;;5.10;1.40;;;;;;;15.89;46.27;98708.67;104479;1277;74641;-70
2022/05/28 10:27:05;;;;;;;5.20;1.70;;;;;;;17.01;43.89;98702.81;104406;1278;69767;-68
2022/05/28 10:29:52;;;;;;;5.20;1.40;;;;;;;18.64;40.06;98695.92;104461;1277;71577;-67
2022/05/28 10:32:49;;;;;;;5.30;1.50;;;;;;;19.37;37.79;98690.45;104273;1277;59774;-69
2022/05/28 10:35:36;;;;;;;5.50;1.40;;;;;;;19.44;37.45;98690.60;104270;1278;61961;-69
2022/05/28 10:38:27;;;;;;;4.30;1.00;;;;;;;18.94;37.87;98693.57;104376;1277;74785;-67
2022/05/28 10:41:28;;;;;;;5.00;1.00;;;;;;;18.24;38.66;98690.53;104541;1277;68378;-69
2022/05/28 10:44:16;;;;;;;5.00;1.20;;;;;;;17.62;40.29;98693.67;104597;1277;73395;-68
2022/05/28 10:47:39;;;;;;;4.50;1.10;;;;;;;17.18;41.54;98702.69;104366;1277;59644;-69
2022/05/28 10:51:28;;;;;;;4.60;1.00;;;;;;;17.34;41.69;98710.70;104849;1271;61060;-68
2022/05/28 10:54:24;;;;;;;3.90;0.80;;;;;;;18.33;39.37;98704.02;104399;1277;73585;-67
2022/05/28 10:57:16;;;;;;;5.50;1.20;;;;;;;17.72;39.73;98697.46;104468;1278;68413;-69
2022/05/28 11:00:11;;;;;;;4.80;1.20;;;;;;;17.31;41.07;98702.88;104421;1277;74331;-70
2022/05/28 11:03:38;;;;;;;5.10;1.40;;;;;;;17.51;41.26;98707.80;104130;1279;59832;-70
2022/05/28 11:07:04;;;;;;;4.20;1.00;;;;;;;17.71;40.91;98708.66;104335;1277;61961;-69
2022/05/28 11:10:20;;;;;;;5.70;1.10;;;;;;;17.49;41.28;98707.41;104329;1277;73788;-69
2022/05/28 11:13:25;;;;;;;5.40;1.10;;;;;;;16.82;42.26;98710.61;104535;1278;68581;-71
2022/05/28 11:16:22;;;;;;;3.30;0.90;;;;;;;16.68;42.47;98707.66;104411;1277;74497;-71
2022/05/28 11:19:39;;;;;;;4.80;1.20;;;;;;;16.22;44.09;98709.65;104316;1277;59718;-70
2022/05/28 11:22:42;;;;;;;4.30;1.10;;;;;;;15.84;46.30;98716.95;104497;1278;60856;-68
2022/05/28 11:25:56;;;;;;;5.00;1.10;;;;;;;15.31;47.60;98721.52;104364;1277;73795;-69
2022/05/28 11:29:16;;;;;;;4.20;1.00;;;;;;;15.17;48.74;98712.93;104378;1274;68587;-67
2022/05/28 11:32:27;;;;;;;5.00;1.00;;;;;;;15.27;48.95;98713.13;105054;1271;73361;-70
2022/05/28 11:35:42;;;;;;;4.10;0.90;;;;;;;15.31;49.14;98713.16;104925;1271;59558;-68
2022/05/28 11:38:41;;;;;;;5.60;1.10;;;;;;;15.25;49.39;98710.52;105182;1271;61499;-70
2022/05/28 11:42:03;;;;;;;5.00;1.30;;;;;;;15.27;49.84;98709.19;104772;1271;74164;-67
2022/05/28 11:44:57;;;;;;;5.20;1.00;;;;;;;15.27;49.93;98714.38;104834;1271;68815;-69
2022/05/28 11:48:00;;;;;;;4.30;0.90;;;;;;;15.10;50.06;98715.14;104888;1271;73248;-68
2022/05/28 11:51:29;;;;;;;3.90;0.90;;;;;;;14.65;51.28;98717.36;104978;1271;59864;-68
2022/05/28 11:54:28;;;;;;;4.30;0.90;;;;;;;13.79;54.09;98728.34;105173;1270;61447;-70
2022/05/28 11:58:00;;;;;;;3.80;0.90;;;;;;;13.43;57.91;98739.48;104825;1271;73605;-69
2022/05/28 12:00:55;;;;;;;5.50;1.20;;;;;;;13.00;62.14;98752.42;104654;1277;69604;-67
2022/05/28 12:03:44;;;;;;;5.60;1.30;;;;;;;12.96;64.31;98754.09;104260;1278;74426;-69
2022/05/28 12:06:37;;;;;;;4.50;1.30;;;;;;;12.80;67.35;98758.02;104355;1277;59795;-68
2022/05/28 12:09:28;;;;;;;4.80;1.30;;;;;;;12.63;68.64;98760.00;104008;1278;59764;-66
2022/05/28 12:12:28;;;;;;;5.60;1.90;;;;;;;12.79;69.31;98763.80;104296;1277;72893;-68
2022/05/28 12:15:27;;;;;;;4.60;1.10;;;;;;;12.79;69.54;98766.84;104251;1280;68850;-67
2022/05/28 12:18:13;;;;;;;4.90;1.40;;;;;;;12.76;69.76;98755.89;104323;1278;74309;-69
2022/05/28 12:21:03;;;;;;;7.30;2.40;;;;;;;12.90;69.40;98759.94;104253;1277;60009;-67
2022/05/28 12:23:49;;;;;;;5.60;1.80;;;;;;;13.38;69.06;98755.33;104421;1277;62037;-69
2022/05/28 12:29:43;;;;;;;5.00;1.10;;;;;;;13.84;65.64;98747.38;104347;1277;68536;-68
2022/05/28 12:32:42;;;;;;;5.10;1.60;;;;;;;13.76;64.81;98750.23;104282;1278;74372;-68
2022/05/28 12:36:00;;;;;;;5.10;1.20;;;;;;;13.60;64.57;98750.05;104816;1271;59697;-68
2022/05/28 12:39:21;;;;;;;4.50;1.20;;;;;;;13.38;64.60;98747.08;105006;1273;60377;-65
2022/05/28 12:42:27;;;;;;;5.40;1.30;;;;;;;13.16;65.09;98751.41;104990;1271;73510;-66
2022/05/28 12:45:38;;;;;;;5.50;1.20;;;;;;;12.95;66.28;98763.30;104917;1271;68858;-67
2022/05/28 12:48:33;;;;;;;4.80;1.40;;;;;;;12.81;67.61;98762.55;104849;1271;74457;-66
2022/05/28 12:51:32;;;;;;;6.30;1.60;;;;;;;12.61;68.84;98770.88;104770;1271;59623;-68
2022/05/28 12:54:35;;;;;;;5.60;1.30;;;;;;;12.32;71.65;98773.23;104645;1276;61949;-68
2022/05/28 12:57:35;;;;;;;4.60;1.20;;;;;;;12.10;72.35;98778.87;104692;1276;74788;-67
2022/05/28 13:00:25;;;;;;;5.30;1.20;;;;;;;11.93;74.33;98776.91;104506;1276;69489;-67
2022/05/28 13:03:16;;;;;;;4.50;1.40;;;;;;;12.00;74.89;98775.97;104828;1276;72905;-69
2022/05/28 13:06:25;;;;;;;4.30;1.10;;;;;;;12.20;74.44;98776.73;104878;1276;60074;-66
2022/05/28 13:09:13;;;;;;;3.90;1.10;;;;;;;12.39;73.92;98781.73;104655;1277;62069;-67
2022/05/28 13:12:11;;;;;;;5.20;1.40;;;;;;;12.32;74.01;98785.35;104399;1276;74761;-66
2022/05/28 13:15:15;;;;;;;5.90;2.00;;;;;;;12.12;74.82;98778.37;103930;1277;1002941;-67
2022/05/28 13:18:36;;;;;;;7.30;2.60;;;;;;;12.28;75.04;98784.16;104605;1277;74333;-68
2022/05/28 13:22:19;;;;;;;7.10;2.60;;;;;;;12.48;74.71;98783.45;104589;1276;60268;-68
2022/05/28 13:25:09;;;;;;;7.20;2.80;;;;;;;12.56;74.38;98786.55;104701;1274;59639;-67
2022/05/28 13:28:17;;;;;;;7.20;2.10;;;;;;;12.46;73.84;98789.33;104915;1271;74825;-67
2022/05/28 13:31:10;;;;;;;7.90;2.50;;;;;;;12.27;74.48;98789.76;104822;1271;67418;-68
2022/05/28 13:33:57;;;;;;;10.40;2.90;;;;;;;12.20;75.63;98797.57;104798;1271;74508;-66
2022/05/28 13:36:44;;;;;;;7.50;1.80;;;;;;;12.08;75.99;98797.80;104975;1274;60052;-67
2022/05/28 13:39:32;;;;;;;10.10;3.50;;;;;;;11.89;75.84;98801.10;104992;1271;60827;-68
2022/05/28 13:42:19;;;;;;;7.70;2.40;;;;;;;11.64;77.22;98805.80;104979;1274;73610;-67